createdAt,value
2023-03-21T00:03:53.637Z,38.20
2023-03-21T00:09:20.486Z,36.60
2023-03-21T00:15:24.907Z,38.00
2023-03-21T00:33:12.092Z,38.60
2023-03-21T00:38:32.893Z,39.60
2023-03-21T00:44:05.692Z,42.70
2023-03-21T00:49:52.322Z,37.10
2023-03-21T00:55:24.887Z,39.00
2023-03-21T01:00:33.681Z,39.50
2023-03-21T01:06:07.394Z,37.90
2023-03-21T01:11:25.259Z,38.50
2023-03-21T01:16:38.049Z,39.40
2023-03-21T01:22:02.043Z,37.10
2023-03-21T01:27:22.570Z,32.90
2023-03-21T01:32:48.733Z,33.60
2023-03-21T01:37:54.692Z,34.90
2023-03-21T01:43:03.034Z,38.00
2023-03-21T01:48:06.792Z,29.80
2023-03-21T01:53:22.512Z,32.30
2023-03-21T01:58:26.653Z,32.50
2023-03-21T02:03:55.555Z,35.60
2023-03-21T02:09:26.300Z,32.90
2023-03-21T02:14:33.910Z,32.00
2023-03-21T02:20:16.399Z,34.90
2023-03-21T02:26:41.155Z,30.60
2023-03-21T02:32:15.170Z,31.40
2023-03-21T02:38:15.192Z,32.60
2023-03-21T02:44:06.603Z,33.20
2023-03-21T02:49:38.192Z,35.80
2023-03-21T02:54:57.104Z,37.20
2023-03-21T03:00:16.262Z,43.50
2023-03-21T03:06:15.445Z,44.50
2023-03-21T03:11:28.946Z,41.70
2023-03-21T03:16:47.192Z,39.30
2023-03-21T03:22:08.825Z,32.00
2023-03-21T03:27:25.046Z,28.80
2023-03-21T03:33:08.534Z,30.70
2023-03-21T03:38:14.472Z,34.80
2023-03-21T03:43:52.400Z,30.80
2023-03-21T03:49:14.002Z,27.40
2023-03-21T03:54:37.227Z,28.80
2023-03-21T03:59:52.819Z,30.30
2023-03-21T04:04:59.686Z,24.40
2023-03-21T04:10:09.353Z,24.20
2023-03-21T04:15:22.356Z,25.50
2023-03-21T04:20:36.897Z,29.70
2023-03-21T04:26:04.598Z,29.50
2023-03-21T04:31:53.587Z,29.80
2023-03-21T04:37:44.239Z,30.40
2023-03-21T04:43:52.493Z,30.70
2023-03-21T04:49:39.082Z,30.80
2023-03-21T04:55:33.337Z,30.40
2023-03-21T05:00:57.463Z,32.00
2023-03-21T05:06:11.928Z,30.40
2023-03-21T05:11:38.068Z,31.30
2023-03-21T05:16:45.231Z,27.00
2023-03-21T05:22:19.450Z,28.50
2023-03-21T05:27:36.641Z,27.70
2023-03-21T05:33:01.016Z,27.10
2023-03-21T05:38:18.671Z,27.30
2023-03-21T05:43:27.652Z,30.40
2023-03-21T05:49:00.564Z,27.80
2023-03-21T05:54:04.840Z,33.30
2023-03-21T05:59:08.612Z,32.50
2023-03-21T06:04:16.579Z,36.20
2023-03-21T06:09:37.181Z,29.50
2023-03-21T06:14:43.482Z,29.80
2023-03-21T06:20:01.212Z,28.00
2023-03-21T06:25:30.555Z,27.10
2023-03-21T06:30:37.542Z,27.60
2023-03-21T06:35:59.108Z,27.40
2023-03-21T06:41:33.011Z,26.40
2023-03-21T06:47:02.254Z,25.00
2023-03-21T06:52:06.301Z,22.50
2023-03-21T06:57:11.718Z,25.20
2023-03-21T07:02:36.190Z,21.90
2023-03-21T07:07:55.612Z,22.80
2023-03-21T07:13:04.289Z,25.80
2023-03-21T07:18:19.031Z,24.10
2023-03-21T07:23:38.180Z,20.90
2023-03-21T07:28:53.004Z,22.70
2023-03-21T07:34:39.468Z,18.00
2023-03-21T07:40:10.365Z,16.50
2023-03-21T07:45:54.923Z,17.00
2023-03-21T08:01:45.549Z,14.40
2023-03-21T08:06:52.104Z,19.30
2023-03-21T08:12:01.745Z,15.60
2023-03-21T08:17:15.486Z,13.90
2023-03-21T08:22:47.911Z,16.00
2023-03-21T08:28:34.186Z,13.60
2023-03-21T08:33:54.501Z,15.20
2023-03-21T08:39:07.103Z,11.60
2023-03-21T08:44:25.457Z,12.90
2023-03-21T08:49:49.955Z,13.30
2023-03-21T08:54:56.499Z,11.40
2023-03-21T09:00:23.383Z,12.50
2023-03-21T09:05:38.112Z,13.60
2023-03-21T09:11:04.453Z,14.30
2023-03-21T09:16:11.570Z,12.00
2023-03-21T09:21:20.459Z,13.90
2023-03-21T09:26:57.529Z,11.30
2023-03-21T09:32:32.499Z,12.00
2023-03-21T09:37:42.420Z,12.70
2023-03-21T09:43:28.974Z,12.20
2023-03-21T09:49:17.546Z,10.30
2023-03-21T09:54:34.938Z,11.60
2023-03-21T09:59:43.593Z,9.80
2023-03-21T10:04:47.220Z,8.00
2023-03-21T10:09:52.694Z,9.00
2023-03-21T10:14:59.118Z,12.10
2023-03-21T10:20:35.853Z,10.70
2023-03-21T10:26:21.706Z,11.00
2023-03-21T10:31:36.166Z,9.20
2023-03-21T10:36:53.348Z,7.90
2023-03-21T10:42:07.335Z,9.00
2023-03-21T10:47:10.742Z,9.20
2023-03-21T10:52:36.744Z,9.90
2023-03-21T10:58:07.973Z,10.50
2023-03-21T11:03:48.457Z,10.00
2023-03-21T11:09:04.258Z,9.60
2023-03-21T11:14:24.198Z,13.20
2023-03-21T11:19:33.498Z,11.10
2023-03-21T11:24:51.407Z,8.30
2023-03-21T11:30:40.058Z,9.10
2023-03-21T11:36:17.982Z,7.00
2023-03-21T11:41:56.607Z,6.80
2023-03-21T11:47:11.627Z,6.70
2023-03-21T11:52:51.581Z,7.80
2023-03-21T11:58:14.892Z,9.20
2023-03-21T12:03:53.016Z,8.40
2023-03-21T12:09:45.397Z,8.40
2023-03-21T12:15:23.573Z,7.00
2023-03-21T12:21:01.986Z,8.90
2023-03-21T12:26:31.523Z,6.00
2023-03-21T12:32:04.423Z,7.00
2023-03-21T12:37:28.373Z,7.10
2023-03-21T12:43:12.535Z,8.50
2023-03-21T12:49:15.620Z,8.70
2023-03-21T12:54:58.602Z,6.80
2023-03-21T13:00:52.096Z,6.00
2023-03-21T13:06:25.540Z,5.40
2023-03-21T13:11:34.070Z,9.50
2023-03-21T13:17:19.556Z,7.50
2023-03-21T13:22:29.000Z,9.40
2023-03-21T13:27:46.192Z,9.40
2023-03-21T13:32:51.625Z,7.20
2023-03-21T13:38:14.919Z,6.90
2023-03-21T13:43:56.876Z,7.20
2023-03-21T13:49:26.784Z,7.60
2023-03-21T13:54:51.168Z,8.30
2023-03-21T14:00:29.471Z,11.50
2023-03-21T14:05:35.494Z,7.90
2023-03-21T14:10:42.630Z,4.80
2023-03-21T14:15:58.282Z,4.50
2023-03-21T14:21:28.169Z,4.40
2023-03-21T14:26:38.053Z,4.90
2023-03-21T14:31:42.159Z,5.40
2023-03-21T14:36:56.910Z,5.80
2023-03-21T14:42:15.792Z,7.60
2023-03-21T14:47:41.319Z,8.30
2023-03-21T14:52:44.852Z,7.70
2023-03-21T14:57:52.149Z,6.00
2023-03-21T15:02:59.365Z,6.50
2023-03-21T15:08:29.102Z,6.00
2023-03-21T15:14:08.498Z,6.00
2023-03-21T15:19:47.705Z,7.10
2023-03-21T15:25:08.492Z,5.80
2023-03-21T15:30:51.145Z,6.70
2023-03-21T15:36:20.723Z,7.20
2023-03-21T15:41:30.166Z,8.90
2023-03-21T15:46:49.152Z,7.90
2023-03-21T15:52:23.687Z,6.70
2023-03-21T15:57:50.312Z,7.00
2023-03-21T16:03:05.059Z,8.90
2023-03-21T16:08:32.804Z,7.20
2023-03-21T16:13:39.188Z,8.60
2023-03-21T16:18:45.957Z,11.30
2023-03-21T16:24:50.083Z,9.20
2023-03-21T16:29:56.324Z,18.90
2023-03-21T16:35:01.460Z,31.40
2023-03-21T16:40:19.846Z,31.90
2023-03-21T16:45:33.611Z,19.60
2023-03-21T16:50:46.396Z,25.80
2023-03-21T17:01:19.387Z,26.10
2023-03-21T17:06:25.612Z,24.10
2023-03-21T17:11:36.383Z,22.70
2023-03-21T17:16:43.065Z,26.20
2023-03-21T17:21:47.333Z,24.70
2023-03-21T17:26:54.128Z,24.10
2023-03-21T17:32:00.523Z,28.30
2023-03-21T17:37:09.879Z,24.20
2023-03-21T17:42:20.857Z,24.10
2023-03-21T17:47:42.775Z,28.40
2023-03-21T17:52:50.853Z,26.90
2023-03-21T17:58:06.369Z,25.90
2023-03-21T18:03:13.523Z,30.20
2023-03-21T18:08:28.693Z,33.90
2023-03-21T18:13:34.851Z,27.60
2023-03-21T18:18:53.748Z,32.60
2023-03-21T18:25:01.042Z,32.10
2023-03-21T18:30:36.114Z,33.20
2023-03-21T18:36:07.539Z,29.60
2023-03-21T18:41:15.340Z,33.40
2023-03-21T18:46:26.764Z,34.80
2023-03-21T18:51:36.517Z,38.80
2023-03-21T19:02:44.008Z,48.50
2023-03-21T19:08:09.589Z,51.10
2023-03-21T19:13:19.665Z,36.70
2023-03-21T19:19:15.894Z,35.20
2023-03-21T19:24:51.146Z,35.00
2023-03-21T19:30:16.164Z,29.00
2023-03-21T19:35:42.046Z,28.40
2023-03-21T19:41:20.216Z,28.20
2023-03-21T19:46:48.620Z,35.80
2023-03-21T19:51:52.394Z,36.00
2023-03-21T19:57:02.012Z,36.60
2023-03-21T20:02:34.490Z,31.10
2023-03-21T20:08:03.477Z,28.80
2023-03-21T20:13:07.404Z,28.30
2023-03-21T20:19:01.206Z,29.10
2023-03-21T20:24:16.632Z,33.40
2023-03-21T20:36:28.597Z,42.80
2023-03-21T20:41:01.739Z,38.20
2023-03-21T20:46:10.669Z,45.00
2023-03-21T20:57:29.008Z,64.40
2023-03-21T21:02:35.895Z,64.00
2023-03-21T21:08:47.411Z,62.40
2023-03-21T21:14:16.752Z,59.10
2023-03-21T21:19:23.722Z,61.60
2023-03-21T21:25:20.094Z,56.50
2023-03-21T21:31:34.729Z,58.20
2023-03-21T21:36:51.321Z,57.80
2023-03-21T21:42:48.558Z,61.50
2023-03-21T21:48:39.898Z,62.70
2023-03-21T21:54:56.643Z,67.70
2023-03-21T22:00:27.415Z,80.90
2023-03-21T22:06:05.753Z,68.60
2023-03-21T22:11:19.417Z,77.90
2023-03-21T22:16:37.720Z,71.10
2023-03-21T22:22:04.383Z,68.40
2023-03-21T22:27:17.624Z,72.60
2023-03-21T22:32:32.540Z,57.60
2023-03-21T22:38:12.506Z,55.40
2023-03-21T22:43:55.368Z,54.80
2023-03-21T22:50:19.711Z,58.10
2023-03-21T22:56:23.847Z,53.00
2023-03-21T23:01:39.969Z,66.50
2023-03-21T23:06:43.919Z,76.40
2023-03-21T23:11:49.704Z,75.80
2023-03-21T23:17:10.283Z,68.50
2023-03-21T23:22:37.561Z,67.80
2023-03-21T23:29:01.968Z,67.20
2023-03-21T23:34:38.356Z,68.70
2023-03-21T23:40:08.993Z,62.70
2023-03-21T23:45:44.231Z,70.60
2023-03-21T23:50:58.252Z,68.10
2023-03-21T23:56:11.475Z,66.90
